sensor_id;sensor_type;location;lat;lon;timestamp;pressure;altitude;pressure_sealevel;temperature;humidity
71805;BME280;59654;52.216;5.616;2023-03-01T00:00:20;103030.06;;;-4.12;84.99
71805;BME280;59654;52.216;5.616;2023-03-01T00:00:51;103036.66;;;-4.18;84.49
71805;BME280;59654;52.216;5.616;2023-03-01T00:01:24;103038.06;;;-4.23;84.63
71805;BME280;59654;52.216;5.616;2023-03-01T00:01:57;103040.31;;;-4.29;84.65
71805;BME280;59654;52.216;5.616;2023-03-01T00:02:29;103037.81;;;-4.28;84.91
71805;BME280;59654;52.216;5.616;2023-03-01T00:03:00;103040.25;;;-4.31;85.29
71805;BME280;59654;52.216;5.616;2023-03-01T00:03:32;103034.97;;;-4.32;84.92
71805;BME280;59654;52.216;5.616;2023-03-01T00:04:03;103032.50;;;-4.29;85.04
71805;BME280;59654;52.216;5.616;2023-03-01T00:04:34;103036.91;;;-4.28;84.92
71805;BME280;59654;52.216;5.616;2023-03-01T00:05:06;103042.91;;;-4.29;84.51
71805;BME280;59654;52.216;5.616;2023-03-01T00:05:44;103040.25;;;-4.31;84.75
71805;BME280;59654;52.216;5.616;2023-03-01T00:06:16;103032.50;;;-4.29;85.57
71805;BME280;59654;52.216;5.616;2023-03-01T00:06:47;103034.31;;;-4.28;84.99
71805;BME280;59654;52.216;5.616;2023-03-01T00:07:18;103040.50;;;-4.26;85.38
71805;BME280;59654;52.216;5.616;2023-03-01T00:07:52;103046.50;;;-4.27;85.63
71805;BME280;59654;52.216;5.616;2023-03-01T00:08:25;103040.50;;;-4.26;85.35
71805;BME280;59654;52.216;5.616;2023-03-01T00:08:56;103038.69;;;-4.27;85.86
71805;BME280;59654;52.216;5.616;2023-03-01T00:09:27;103038.63;;;-4.29;85.73
71805;BME280;59654;52.216;5.616;2023-03-01T00:09:58;103036.75;;;-4.31;84.65
71805;BME280;59654;52.216;5.616;2023-03-01T00:10:29;103031.19;;;-4.37;83.96
71805;BME280;59654;52.216;5.616;2023-03-01T00:11:09;103035.59;;;-4.36;83.93
71805;BME280;59654;52.216;5.616;2023-03-01T00:11:45;103037.81;;;-4.43;83.84
71805;BME280;59654;52.216;5.616;2023-03-01T00:12:16;103036.84;;;-4.45;84.53
71805;BME280;59654;52.216;5.616;2023-03-01T00:12:47;103036.69;;;-4.48;85.25
71805;BME280;59654;52.216;5.616;2023-03-01T00:13:18;103038.09;;;-4.53;85.44
71805;BME280;59654;52.216;5.616;2023-03-01T00:13:53;103041.50;;;-4.54;85.96
71805;BME280;59654;52.216;5.616;2023-03-01T00:14:25;103038.91;;;-4.54;85.90
71805;BME280;59654;52.216;5.616;2023-03-01T00:14:56;103039.91;;;-4.52;85.58
71805;BME280;59654;52.216;5.616;2023-03-01T00:15:27;103042.59;;;-4.50;85.51
71805;BME280;59654;52.216;5.616;2023-03-01T00:16:02;103039.38;;;-4.46;85.20
71805;BME280;59654;52.216;5.616;2023-03-01T00:16:36;103037.63;;;-4.46;85.61
71805;BME280;59654;52.216;5.616;2023-03-01T00:17:10;103043.94;;;-4.42;85.77
71805;BME280;59654;52.216;5.616;2023-03-01T00:17:40;103036.38;;;-4.37;86.57
71805;BME280;59654;52.216;5.616;2023-03-01T00:18:11;103034.78;;;-4.35;85.69
71805;BME280;59654;52.216;5.616;2023-03-01T00:18:42;103035.78;;;-4.33;85.32
71805;BME280;59654;52.216;5.616;2023-03-01T00:19:20;103030.56;;;-4.33;85.62
71805;BME280;59654;52.216;5.616;2023-03-01T00:19:52;103033.88;;;-4.36;84.83
71805;BME280;59654;52.216;5.616;2023-03-01T00:20:23;103025.97;;;-4.37;85.52
71805;BME280;59654;52.216;5.616;2023-03-01T00:20:57;103029.66;;;-4.34;85.28
71805;BME280;59654;52.216;5.616;2023-03-01T00:21:28;103035.69;;;-4.35;84.76
71805;BME280;59654;52.216;5.616;2023-03-01T00:21:59;103033.78;;;-4.37;84.68
71805;BME280;59654;52.216;5.616;2023-03-01T00:22:31;103031.81;;;-4.42;84.52
71805;BME280;59654;52.216;5.616;2023-03-01T00:23:02;103032.38;;;-4.47;84.67
71805;BME280;59654;52.216;5.616;2023-03-01T00:23:36;103032.09;;;-4.52;85.13
71805;BME280;59654;52.216;5.616;2023-03-01T00:24:08;103029.31;;;-4.55;84.98
71805;BME280;59654;52.216;5.616;2023-03-01T00:24:42;103029.03;;;-4.59;85.48
71805;BME280;59654;52.216;5.616;2023-03-01T00:25:16;103029.94;;;-4.59;85.31
71805;BME280;59654;52.216;5.616;2023-03-01T00:25:46;103030.81;;;-4.58;85.54
71805;BME280;59654;52.216;5.616;2023-03-01T00:26:19;103029.84;;;-4.60;85.25
71805;BME280;59654;52.216;5.616;2023-03-01T00:26:55;103028.88;;;-4.62;85.04
71805;BME280;59654;52.216;5.616;2023-03-01T00:27:26;103023.56;;;-4.64;85.11
71805;BME280;59654;52.216;5.616;2023-03-01T00:27:57;103025.28;;;-4.64;85.67
71805;BME280;59654;52.216;5.616;2023-03-01T00:28:28;103023.50;;;-4.65;85.68
71805;BME280;59654;52.216;5.616;2023-03-01T00:28:59;103029.50;;;-4.66;85.82
71805;BME280;59654;52.216;5.616;2023-03-01T00:29:30;103029.69;;;-4.63;85.75
71805;BME280;59654;52.216;5.616;2023-03-01T00:30:01;103022.69;;;-4.64;86.35
71805;BME280;59654;52.216;5.616;2023-03-01T00:30:33;103026.09;;;-4.65;85.66
71805;BME280;59654;52.216;5.616;2023-03-01T00:31:10;103025.09;;;-4.67;86.03
71805;BME280;59654;52.216;5.616;2023-03-01T00:31:48;103023.31;;;-4.68;86.50
71805;BME280;59654;52.216;5.616;2023-03-01T00:32:19;103023.22;;;-4.70;86.61
71805;BME280;59654;52.216;5.616;2023-03-01T00:32:50;103030.13;;;-4.70;86.83
71805;BME280;59654;52.216;5.616;2023-03-01T00:33:21;103037.03;;;-4.71;86.98
71805;BME280;59654;52.216;5.616;2023-03-01T00:33:53;103028.31;;;-4.71;86.84
71805;BME280;59654;52.216;5.616;2023-03-01T00:34:29;103027.59;;;-4.69;86.90
71805;BME280;59654;52.216;5.616;2023-03-01T00:35:00;103023.50;;;-4.65;86.63
71805;BME280;59654;52.216;5.616;2023-03-01T00:35:32;103024.47;;;-4.63;86.52
71805;BME280;59654;52.216;5.616;2023-03-01T00:36:04;103025.53;;;-4.60;86.36
71805;BME280;59654;52.216;5.616;2023-03-01T00:36:37;103030.91;;;-4.57;86.52
71805;BME280;59654;52.216;5.616;2023-03-01T00:37:08;103025.91;;;-4.54;86.31
71805;BME280;59654;52.216;5.616;2023-03-01T00:37:38;103025.28;;;-4.50;86.41
71805;BME280;59654;52.216;5.616;2023-03-01T00:38:11;103032.38;;;-4.47;85.91
71805;BME280;59654;52.216;5.616;2023-03-01T00:38:44;103023.91;;;-4.43;86.17
71805;BME280;59654;52.216;5.616;2023-03-01T00:39:16;103023.19;;;-4.41;86.36
71805;BME280;59654;52.216;5.616;2023-03-01T00:39:47;103021.50;;;-4.40;85.80
71805;BME280;59654;52.216;5.616;2023-03-01T00:40:19;103022.47;;;-4.38;86.28
71805;BME280;59654;52.216;5.616;2023-03-01T00:40:50;103019.16;;;-4.35;86.12
71805;BME280;59654;52.216;5.616;2023-03-01T00:41:22;103017.63;;;-4.32;85.45
71805;BME280;59654;52.216;5.616;2023-03-01T00:41:53;103018.53;;;-4.31;86.06
71805;BME280;59654;52.216;5.616;2023-03-01T00:42:24;103017.78;;;-4.29;86.21
71805;BME280;59654;52.216;5.616;2023-03-01T00:42:55;103019.56;;;-4.28;85.06
71805;BME280;59654;52.216;5.616;2023-03-01T00:43:26;103015.28;;;-4.27;84.91
71805;BME280;59654;52.216;5.616;2023-03-01T00:43:57;103027.47;;;-4.26;84.93
71805;BME280;59654;52.216;5.616;2023-03-01T00:44:28;103018.88;;;-4.25;84.36
71805;BME280;59654;52.216;5.616;2023-03-01T00:44:59;103015.34;;;-4.26;84.35
71805;BME280;59654;52.216;5.616;2023-03-01T00:45:30;103006.75;;;-4.25;84.23
71805;BME280;59654;52.216;5.616;2023-03-01T00:46:08;103017.25;;;-4.23;84.62
71805;BME280;59654;52.216;5.616;2023-03-01T00:46:41;103021.66;;;-4.22;84.42
71805;BME280;59654;52.216;5.616;2023-03-01T00:47:12;103019.84;;;-4.23;84.98
71805;BME280;59654;52.216;5.616;2023-03-01T00:47:44;103025.78;;;-4.26;84.87
71805;BME280;59654;52.216;5.616;2023-03-01T00:48:15;103019.56;;;-4.28;85.46
71805;BME280;59654;52.216;5.616;2023-03-01T00:48:46;103018.69;;;-4.28;84.96
71805;BME280;59654;52.216;5.616;2023-03-01T00:49:17;103022.94;;;-4.30;84.44
71805;BME280;59654;52.216;5.616;2023-03-01T00:49:48;103014.03;;;-4.34;84.53
71805;BME280;59654;52.216;5.616;2023-03-01T00:50:20;103014.66;;;-4.38;85.00
71805;BME280;59654;52.216;5.616;2023-03-01T00:50:51;103018.88;;;-4.40;84.68
71805;BME280;59654;52.216;5.616;2023-03-01T00:51:25;103014.47;;;-4.41;85.88
71805;BME280;59654;52.216;5.616;2023-03-01T00:51:57;103014.38;;;-4.43;85.69
71805;BME280;59654;52.216;5.616;2023-03-01T00:52:28;103020.50;;;-4.42;85.29
71805;BME280;59654;52.216;5.616;2023-03-01T00:52:58;103015.38;;;-4.41;85.33
71805;BME280;59654;52.216;5.616;2023-03-01T00:53:29;103015.47;;;-4.39;85.20
71805;BME280;59654;52.216;5.616;2023-03-01T00:54:02;103017.38;;;-4.36;85.09
71805;BME280;59654;52.216;5.616;2023-03-01T00:54:33;103014.75;;;-4.36;85.76
71805;BME280;59654;52.216;5.616;2023-03-01T00:55:05;103019.25;;;-4.34;85.59
71805;BME280;59654;52.216;5.616;2023-03-01T00:55:36;103019.34;;;-4.32;85.54
71805;BME280;59654;52.216;5.616;2023-03-01T00:56:09;103011.53;;;-4.32;85.81
71805;BME280;59654;52.216;5.616;2023-03-01T00:56:41;103016.88;;;-4.29;85.36
71805;BME280;59654;52.216;5.616;2023-03-01T00:57:12;103015.19;;;-4.29;85.65
71805;BME280;59654;52.216;5.616;2023-03-01T00:57:43;103018.69;;;-4.28;85.43
71805;BME280;59654;52.216;5.616;2023-03-01T00:58:15;103009.25;;;-4.26;85.35
71805;BME280;59654;52.216;5.616;2023-03-01T00:58:46;103012.84;;;-4.24;85.32
71805;BME280;59654;52.216;5.616;2023-03-01T00:59:17;103013.66;;;-4.25;85.59
71805;BME280;59654;52.216;5.616;2023-03-01T00:59:48;103012.94;;;-4.23;85.35
71805;BME280;59654;52.216;5.616;2023-03-01T01:00:20;103009.53;;;-4.22;85.33
71805;BME280;59654;52.216;5.616;2023-03-01T01:00:51;103007.00;;;-4.20;85.46
71805;BME280;59654;52.216;5.616;2023-03-01T01:01:28;102999.28;;;-4.19;84.77
71805;BME280;59654;52.216;5.616;2023-03-01T01:02:00;103005.41;;;-4.18;85.31
71805;BME280;59654;52.216;5.616;2023-03-01T01:02:34;103001.16;;;-4.16;85.18
71805;BME280;59654;52.216;5.616;2023-03-01T01:03:04;103001.16;;;-4.16;85.48
71805;BME280;59654;52.216;5.616;2023-03-01T01:03:35;103000.38;;;-4.15;84.82
71805;BME280;59654;52.216;5.616;2023-03-01T01:04:11;102999.47;;;-4.16;84.94
71805;BME280;59654;52.216;5.616;2023-03-01T01:04:44;103001.97;;;-4.17;84.77
71805;BME280;59654;52.216;5.616;2023-03-01T01:05:16;102997.59;;;-4.18;84.68
71805;BME280;59654;52.216;5.616;2023-03-01T01:05:52;102997.50;;;-4.20;84.52
71805;BME280;59654;52.216;5.616;2023-03-01T01:06:26;103003.41;;;-4.22;84.65
71805;BME280;59654;52.216;5.616;2023-03-01T01:07:02;102998.03;;;-4.25;84.53
71805;BME280;59654;52.216;5.616;2023-03-01T01:07:33;102998.75;;;-4.28;84.45
71805;BME280;59654;52.216;5.616;2023-03-01T01:08:03;103002.91;;;-4.31;84.40
71805;BME280;59654;52.216;5.616;2023-03-01T01:08:35;102991.50;;;-4.33;84.07
71805;BME280;59654;52.216;5.616;2023-03-01T01:09:07;102989.63;;;-4.36;83.90
71805;BME280;59654;52.216;5.616;2023-03-01T01:09:38;102999.94;;;-4.37;84.12
71805;BME280;59654;52.216;5.616;2023-03-01T01:10:09;102989.44;;;-4.39;84.32
71805;BME280;59654;52.216;5.616;2023-03-01T01:10:47;102995.44;;;-4.40;84.30
71805;BME280;59654;52.216;5.616;2023-03-01T01:11:18;102997.88;;;-4.43;84.41
71805;BME280;59654;52.216;5.616;2023-03-01T01:11:51;102990.06;;;-4.43;84.97
71805;BME280;59654;52.216;5.616;2023-03-01T01:12:22;102991.78;;;-4.44;85.12
71805;BME280;59654;52.216;5.616;2023-03-01T01:12:53;102991.69;;;-4.45;84.82
71805;BME280;59654;52.216;5.616;2023-03-01T01:13:23;102988.34;;;-4.43;85.44
71805;BME280;59654;52.216;5.616;2023-03-01T01:13:55;102994.38;;;-4.44;84.71
71805;BME280;59654;52.216;5.616;2023-03-01T01:14:26;102990.06;;;-4.43;84.74
71805;BME280;59654;52.216;5.616;2023-03-01T01:14:58;102994.38;;;-4.44;84.87
71805;BME280;59654;52.216;5.616;2023-03-01T01:15:29;102987.31;;;-4.46;85.46
71805;BME280;59654;52.216;5.616;2023-03-01T01:16:05;102989.81;;;-4.48;85.33
71805;BME280;59654;52.216;5.616;2023-03-01T01:16:36;102989.72;;;-4.49;85.45
71805;BME280;59654;52.216;5.616;2023-03-01T01:17:07;102986.06;;;-4.53;85.32
71805;BME280;59654;52.216;5.616;2023-03-01T01:17:37;102993.69;;;-4.56;85.17
71805;BME280;59654;52.216;5.616;2023-03-01T01:18:08;102990.09;;;-4.58;84.89
71805;BME280;59654;52.216;5.616;2023-03-01T01:18:39;102990.00;;;-4.59;85.59
71805;BME280;59654;52.216;5.616;2023-03-01T01:19:12;102987.28;;;-4.61;85.18
71805;BME280;59654;52.216;5.616;2023-03-01T01:19:44;102981.94;;;-4.64;85.35
71805;BME280;59654;52.216;5.616;2023-03-01T01:20:14;102985.50;;;-4.62;85.60
71805;BME280;59654;52.216;5.616;2023-03-01T01:20:45;102980.28;;;-4.62;85.63
71805;BME280;59654;52.216;5.616;2023-03-01T01:21:18;102990.00;;;-4.59;84.93
71805;BME280;59654;52.216;5.616;2023-03-01T01:21:51;102983.19;;;-4.57;85.61
71805;BME280;59654;52.216;5.616;2023-03-01T01:22:22;102983.19;;;-4.57;85.17
71805;BME280;59654;52.216;5.616;2023-03-01T01:22:53;102973.75;;;-4.55;85.28
71805;BME280;59654;52.216;5.616;2023-03-01T01:23:24;102977.34;;;-4.53;85.88
71805;BME280;59654;52.216;5.616;2023-03-01T01:23:55;102971.34;;;-4.52;85.57
71805;BME280;59654;52.216;5.616;2023-03-01T01:24:27;102971.50;;;-4.49;85.37
71805;BME280;59654;52.216;5.616;2023-03-01T01:24:57;102977.75;;;-4.46;85.42
71805;BME280;59654;52.216;5.616;2023-03-01T01:25:29;102977.84;;;-4.44;84.92
71805;BME280;59654;52.216;5.616;2023-03-01T01:26:15;102974.53;;;-4.42;85.35
71805;BME280;59654;52.216;5.616;2023-03-01T01:26:47;102978.84;;;-4.42;84.55
71805;BME280;59654;52.216;5.616;2023-03-01T01:27:18;102980.56;;;-4.43;85.48
71805;BME280;59654;52.216;5.616;2023-03-01T01:27:49;102976.06;;;-4.45;85.34
71805;BME280;59654;52.216;5.616;2023-03-01T01:28:20;102975.91;;;-4.48;85.21
71805;BME280;59654;52.216;5.616;2023-03-01T01:28:51;102973.13;;;-4.51;85.38
71805;BME280;59654;52.216;5.616;2023-03-01T01:29:22;102973.03;;;-4.53;85.70
71805;BME280;59654;52.216;5.616;2023-03-01T01:29:53;102980.84;;;-4.53;85.20
71805;BME280;59654;52.216;5.616;2023-03-01T01:30:24;102977.25;;;-4.55;84.61
71805;BME280;59654;52.216;5.616;2023-03-01T01:30:55;102982.28;;;-4.58;84.64
71805;BME280;59654;52.216;5.616;2023-03-01T01:31:27;102973.47;;;-4.60;85.25
71805;BME280;59654;52.216;5.616;2023-03-01T01:31:58;102977.63;;;-4.63;85.50
71805;BME280;59654;52.216;5.616;2023-03-01T01:32:29;102972.44;;;-4.63;85.42
71805;BME280;59654;52.216;5.616;2023-03-01T01:33:00;102967.13;;;-4.65;85.46
71805;BME280;59654;52.216;5.616;2023-03-01T01:33:31;102979.16;;;-4.67;85.43
71805;BME280;59654;52.216;5.616;2023-03-01T01:34:05;102982.56;;;-4.68;86.37
71805;BME280;59654;52.216;5.616;2023-03-01T01:34:36;102977.28;;;-4.69;85.85
71805;BME280;59654;52.216;5.616;2023-03-01T01:35:07;102984.00;;;-4.73;85.32
71805;BME280;59654;52.216;5.616;2023-03-01T01:35:38;102986.41;;;-4.76;85.27
71805;BME280;59654;52.216;5.616;2023-03-01T01:36:10;102983.81;;;-4.76;85.76
71805;BME280;59654;52.216;5.616;2023-03-01T01:36:41;102984.00;;;-4.73;86.23
71805;BME280;59654;52.216;5.616;2023-03-01T01:37:12;102984.69;;;-4.76;86.19
71805;BME280;59654;52.216;5.616;2023-03-01T01:37:42;102981.06;;;-4.79;86.44
71805;BME280;59654;52.216;5.616;2023-03-01T01:38:13;102982.66;;;-4.81;86.52
71805;BME280;59654;52.216;5.616;2023-03-01T01:38:44;102977.28;;;-4.84;86.83
71805;BME280;59654;52.216;5.616;2023-03-01T01:39:15;102978.34;;;-4.81;86.40
71805;BME280;59654;52.216;5.616;2023-03-01T01:39:46;102968.84;;;-4.80;86.78
71805;BME280;59654;52.216;5.616;2023-03-01T01:40:17;102975.00;;;-4.78;87.18
71805;BME280;59654;52.216;5.616;2023-03-01T01:40:50;102972.41;;;-4.78;87.11
71805;BME280;59654;52.216;5.616;2023-03-01T01:41:23;102969.00;;;-4.77;86.58
71805;BME280;59654;52.216;5.616;2023-03-01T01:41:54;102967.19;;;-4.78;86.76
71805;BME280;59654;52.216;5.616;2023-03-01T01:42:25;102970.78;;;-4.76;86.70
71805;BME280;59654;52.216;5.616;2023-03-01T01:42:56;102968.38;;;-4.73;87.23
71805;BME280;59654;52.216;5.616;2023-03-01T01:43:31;102975.56;;;-4.69;86.58
71805;BME280;59654;52.216;5.616;2023-03-01T01:44:20;102967.03;;;-4.66;86.74
71805;BME280;59654;52.216;5.616;2023-03-01T01:46:05;102973.47;;;-4.60;85.51
71805;BME280;59654;52.216;5.616;2023-03-01T01:46:49;102970.97;;;-4.58;86.01
71805;BME280;59654;52.216;5.616;2023-03-01T01:47:24;102971.06;;;-4.57;86.02
71805;BME280;59654;52.216;5.616;2023-03-01T01:48:09;102969.44;;;-4.55;85.68
71805;BME280;59654;52.216;5.616;2023-03-01T01:48:46;102964.25;;;-4.55;86.04
71805;BME280;59654;52.216;5.616;2023-03-01T01:49:35;102965.84;;;-4.57;85.68
71805;BME280;59654;52.216;5.616;2023-03-01T01:50:16;102962.25;;;-4.59;85.67
71805;BME280;59654;52.216;5.616;2023-03-01T01:50:57;102970.88;;;-4.60;86.12
71805;BME280;59654;52.216;5.616;2023-03-01T01:51:37;102964.06;;;-4.58;85.47
71805;BME280;59654;52.216;5.616;2023-03-01T01:52:16;102964.97;;;-4.57;85.37
71805;BME280;59654;52.216;5.616;2023-03-01T01:52:53;102965.03;;;-4.56;84.61
71805;BME280;59654;52.216;5.616;2023-03-01T01:53:25;102972.06;;;-4.55;85.33
71805;BME280;59654;52.216;5.616;2023-03-01T01:54:00;102965.13;;;-4.54;84.98
71805;BME280;59654;52.216;5.616;2023-03-01T01:55:23;102961.00;;;-4.51;84.93
71805;BME280;59654;52.216;5.616;2023-03-01T01:55:58;102968.81;;;-4.51;84.58
71805;BME280;59654;52.216;5.616;2023-03-01T01:56:32;102967.13;;;-4.50;85.39
71805;BME280;59654;52.216;5.616;2023-03-01T01:57:09;102962.81;;;-4.50;84.30
71805;BME280;59654;52.216;5.616;2023-03-01T01:57:48;102959.41;;;-4.49;85.33
71805;BME280;59654;52.216;5.616;2023-03-01T01:58:25;102964.59;;;-4.49;85.29
71805;BME280;59654;52.216;5.616;2023-03-01T01:58:58;102962.91;;;-4.48;85.41
71805;BME280;59654;52.216;5.616;2023-03-01T01:59:32;102965.50;;;-4.48;85.35
71805;BME280;59654;52.216;5.616;2023-03-01T02:00:09;102962.09;;;-4.47;84.92
71805;BME280;59654;52.216;5.616;2023-03-01T02:00:47;102958.59;;;-4.48;85.22
71805;BME280;59654;52.216;5.616;2023-03-01T02:01:20;102959.53;;;-4.46;85.21
71805;BME280;59654;52.216;5.616;2023-03-01T02:01:52;102962.16;;;-4.46;85.11
71805;BME280;59654;52.216;5.616;2023-03-01T02:02:24;102964.75;;;-4.46;85.03
71805;BME280;59654;52.216;5.616;2023-03-01T02:03:17;102964.84;;;-4.44;85.38
71805;BME280;59654;52.216;5.616;2023-03-01T02:03:51;102967.53;;;-4.43;85.21
71805;BME280;59654;52.216;5.616;2023-03-01T02:04:22;102957.13;;;-4.43;85.26
71805;BME280;59654;52.216;5.616;2023-03-01T02:07:20;102952.09;;;-4.39;84.62
71805;BME280;59654;52.216;5.616;2023-03-01T02:07:53;102956.50;;;-4.38;85.23
71805;BME280;59654;52.216;5.616;2023-03-01T02:08:29;102950.47;;;-4.37;84.57
71805;BME280;59654;52.216;5.616;2023-03-01T02:09:08;102953.19;;;-4.36;85.37
71805;BME280;59654;52.216;5.616;2023-03-01T02:09:48;102959.28;;;-4.35;85.68
71805;BME280;59654;52.216;5.616;2023-03-01T02:10:21;102949.75;;;-4.35;84.28
71805;BME280;59654;52.216;5.616;2023-03-01T02:10:54;102955.88;;;-4.34;84.90
71805;BME280;59654;52.216;5.616;2023-03-01T02:11:30;102951.47;;;-4.35;84.46
71805;BME280;59654;52.216;5.616;2023-03-01T02:12:04;102959.19;;;-4.37;84.60
71805;BME280;59654;52.216;5.616;2023-03-01T02:12:35;102955.59;;;-4.39;84.31
71805;BME280;59654;52.216;5.616;2023-03-01T02:13:08;102961.63;;;-4.40;84.44
71805;BME280;59654;52.216;5.616;2023-03-01T02:13:39;102954.53;;;-4.43;84.37
71805;BME280;59654;52.216;5.616;2023-03-01T02:14:10;102957.94;;;-4.44;85.20
71805;BME280;59654;52.216;5.616;2023-03-01T02:14:41;102962.16;;;-4.46;85.15
71805;BME280;59654;52.216;5.616;2023-03-01T02:15:12;102957.78;;;-4.47;85.31
71805;BME280;59654;52.216;5.616;2023-03-01T02:15:43;102956.94;;;-4.46;85.45
71805;BME280;59654;52.216;5.616;2023-03-01T02:16:16;102961.19;;;-4.48;84.62
71805;BME280;59654;52.216;5.616;2023-03-01T02:16:47;102955.91;;;-4.49;85.33
71805;BME280;59654;52.216;5.616;2023-03-01T02:17:21;102957.59;;;-4.50;85.46
71805;BME280;59654;52.216;5.616;2023-03-01T02:17:54;102956.72;;;-4.50;85.76
71805;BME280;59654;52.216;5.616;2023-03-01T02:18:25;102956.63;;;-4.52;85.24
71805;BME280;59654;52.216;5.616;2023-03-01T02:18:58;102954.81;;;-4.53;85.55
71805;BME280;59654;52.216;5.616;2023-03-01T02:19:44;102952.03;;;-4.56;84.67
71805;BME280;59654;52.216;5.616;2023-03-01T02:22:55;102956.34;;;-4.71;85.39
71805;BME280;59654;52.216;5.616;2023-03-01T02:23:27;102951.16;;;-4.71;84.79
71805;BME280;59654;52.216;5.616;2023-03-01T02:24:11;102946.75;;;-4.72;84.33
71805;BME280;59654;52.216;5.616;2023-03-01T02:26:54;102945.78;;;-4.74;84.49
71805;BME280;59654;52.216;5.616;2023-03-01T02:27:38;102943.16;;;-4.74;84.75
71805;BME280;59654;52.216;5.616;2023-03-01T02:29:00;102939.13;;;-4.69;85.01
71805;BME280;59654;52.216;5.616;2023-03-01T02:29:31;102940.94;;;-4.68;85.35
71805;BME280;59654;52.216;5.616;2023-03-01T02:30:03;102935.81;;;-4.66;84.67
71805;BME280;59654;52.216;5.616;2023-03-01T02:30:34;102937.72;;;-4.64;85.62
71805;BME280;59654;52.216;5.616;2023-03-01T02:31:08;102937.72;;;-4.64;84.85
71805;BME280;59654;52.216;5.616;2023-03-01T02:32:02;102936.00;;;-4.63;85.32
71805;BME280;59654;52.216;5.616;2023-03-01T02:32:34;102939.41;;;-4.64;85.05
71805;BME280;59654;52.216;5.616;2023-03-01T02:33:05;102937.63;;;-4.65;85.05
71805;BME280;59654;52.216;5.616;2023-03-01T02:33:38;102941.81;;;-4.67;85.63
71805;BME280;59654;52.216;5.616;2023-03-01T02:34:14;102937.34;;;-4.70;85.28
71805;BME280;59654;52.216;5.616;2023-03-01T02:34:46;102937.25;;;-4.71;85.37
71805;BME280;59654;52.216;5.616;2023-03-01T02:35:19;102931.16;;;-4.72;85.11
71805;BME280;59654;52.216;5.616;2023-03-01T02:35:53;102931.06;;;-4.73;85.15
71805;BME280;59654;52.216;5.616;2023-03-01T02:36:30;102934.56;;;-4.73;86.03
71805;BME280;59654;52.216;5.616;2023-03-01T02:37:10;102943.25;;;-4.72;85.96
71805;BME280;59654;52.216;5.616;2023-03-01T02:37:45;102931.16;;;-4.72;85.56
71805;BME280;59654;52.216;5.616;2023-03-01T02:38:16;102939.03;;;-4.70;86.08
71805;BME280;59654;52.216;5.616;2023-03-01T02:38:51;102934.75;;;-4.70;86.26
71805;BME280;59654;52.216;5.616;2023-03-01T02:39:33;102933.94;;;-4.69;86.27
71805;BME280;59654;52.216;5.616;2023-03-01T02:40:16;102934.91;;;-4.67;85.95
71805;BME280;59654;52.216;5.616;2023-03-01T02:40:51;102927.81;;;-4.69;85.51
71805;BME280;59654;52.216;5.616;2023-03-01T02:41:25;102939.94;;;-4.70;85.92
71805;BME280;59654;52.216;5.616;2023-03-01T02:41:58;102933.03;;;-4.69;86.29
71805;BME280;59654;52.216;5.616;2023-03-01T02:42:45;102933.13;;;-4.68;85.77
71805;BME280;59654;52.216;5.616;2023-03-01T02:43:23;102936.53;;;-4.69;86.34
71805;BME280;59654;52.216;5.616;2023-03-01T02:44:00;102925.31;;;-4.68;85.96
71805;BME280;59654;52.216;5.616;2023-03-01T02:44:31;102934.03;;;-4.67;85.54
71805;BME280;59654;52.216;5.616;2023-03-01T02:45:02;102932.41;;;-4.65;86.00
71805;BME280;59654;52.216;5.616;2023-03-01T02:45:33;102924.59;;;-4.65;85.88
71805;BME280;59654;52.216;5.616;2023-03-01T02:46:08;102939.41;;;-4.64;85.44
71805;BME280;59654;52.216;5.616;2023-03-01T02:46:51;102934.28;;;-4.63;85.13
71805;BME280;59654;52.216;5.616;2023-03-01T02:47:24;102933.41;;;-4.63;85.29
71805;BME280;59654;52.216;5.616;2023-03-01T02:47:56;102929.09;;;-4.63;84.17
71805;BME280;59654;52.216;5.616;2023-03-01T02:48:28;102928.25;;;-4.62;84.28
71805;BME280;59654;52.216;5.616;2023-03-01T02:48:59;102932.75;;;-4.59;84.17
71805;BME280;59654;52.216;5.616;2023-03-01T02:49:33;102929.31;;;-4.58;84.63
71805;BME280;59654;52.216;5.616;2023-03-01T02:50:31;102929.41;;;-4.57;84.76
71805;BME280;59654;52.216;5.616;2023-03-01T02:53:08;102927.91;;;-4.53;84.01
71805;BME280;59654;52.216;5.616;2023-03-01T02:54:11;102937.41;;;-4.54;84.53
71805;BME280;59654;52.216;5.616;2023-03-01T02:55:03;102932.19;;;-4.54;83.60
71805;BME280;59654;52.216;5.616;2023-03-01T02:55:36;102928.69;;;-4.54;83.26
71805;BME280;59654;52.216;5.616;2023-03-01T02:56:10;102928.69;;;-4.54;83.71
71805;BME280;59654;52.216;5.616;2023-03-01T02:56:45;102930.50;;;-4.53;84.15
71805;BME280;59654;52.216;5.616;2023-03-01T02:57:21;102926.19;;;-4.53;84.17
71805;BME280;59654;52.216;5.616;2023-03-01T02:57:56;102927.91;;;-4.53;84.48
71805;BME280;59654;52.216;5.616;2023-03-01T02:58:29;102927.97;;;-4.52;84.56
71805;BME280;59654;52.216;5.616;2023-03-01T02:59:00;102921.06;;;-4.51;85.09
71805;BME280;59654;52.216;5.616;2023-03-01T02:59:36;102935.78;;;-4.52;85.21
71805;BME280;59654;52.216;5.616;2023-03-01T03:00:15;102923.69;;;-4.51;84.76
71805;BME280;59654;52.216;5.616;2023-03-01T03:00:51;102920.19;;;-4.52;84.62
71805;BME280;59654;52.216;5.616;2023-03-01T03:01:23;102933.19;;;-4.52;85.19
71805;BME280;59654;52.216;5.616;2023-03-01T03:02:20;102924.47;;;-4.52;85.06
71805;BME280;59654;52.216;5.616;2023-03-01T03:03:24;102920.97;;;-4.53;84.91
71805;BME280;59654;52.216;5.616;2023-03-01T03:03:54;102929.69;;;-4.52;85.10
71805;BME280;59654;52.216;5.616;2023-03-01T03:04:25;102930.50;;;-4.53;84.74
71805;BME280;59654;52.216;5.616;2023-03-01T03:04:56;102924.41;;;-4.54;84.39
71805;BME280;59654;52.216;5.616;2023-03-01T03:05:29;102921.69;;;-4.55;84.10
71805;BME280;59654;52.216;5.616;2023-03-01T03:06:02;102923.41;;;-4.56;84.84
71805;BME280;59654;52.216;5.616;2023-03-01T03:06:34;102926.81;;;-4.57;84.24
71805;BME280;59654;52.216;5.616;2023-03-01T03:07:05;102926.72;;;-4.58;84.29
71805;BME280;59654;52.216;5.616;2023-03-01T03:07:38;102925.72;;;-4.60;84.69
71805;BME280;59654;52.216;5.616;2023-03-01T03:08:12;102921.34;;;-4.61;84.97